Time;durP1;ratioP1;P1;durP2;ratioP2;P2;SDS_P1;SDS_P2;PMS_P1;PMS_P2;Temp;Humidity;BMP_temperature;BMP_pressure;BME280_temperature;BME280_humidity;BME280_pressure;Samples;Min_cycle;Max_cycle;Signal;HPM_P1;HPM_P2
2023/03/12 00:01:20;;;;;;;5.83;2.27;;;;;;;;;;5026721;28;20198;-77
2023/03/12 00:03:46;;;;;;;3.67;2.17;;;;;;;;;;5011817;28;20177;-78
2023/03/12 00:06:11;;;;;;;3.20;2.20;;;;;;;;;;5007165;28;20236;-77
2023/03/12 00:08:37;;;;;;;5.53;2.60;;;;;;;;;;5021667;28;20260;-77
2023/03/12 00:11:06;;;;;;;4.67;2.20;;;;;;;;;;5021980;28;20198;-77
2023/03/12 00:13:31;;;;;;;4.87;2.23;;;;;;;;;;5006433;28;20264;-77
2023/03/12 00:16:01;;;;;;;5.97;2.33;;;;;;;;;;5003464;28;20224;-77
2023/03/12 00:18:26;;;;;;;3.43;1.80;;;;;;;;;;5011028;28;20189;-78
2023/03/12 00:20:52;;;;;;;4.07;2.33;;;;;;;;;;5042371;28;20221;-78
2023/03/12 00:23:17;;;;;;;5.93;2.10;;;;;;;;;;5042194;28;20217;-78
2023/03/12 00:25:43;;;;;;;5.73;2.30;;;;;;;;;;5030205;28;20202;-78
2023/03/12 00:28:08;;;;;;;2.13;1.93;;;;;;;;;;5019913;28;20183;-78
2023/03/12 00:30:33;;;;;;;3.57;2.40;;;;;;;;;;5022009;28;20273;-78
2023/03/12 00:32:58;;;;;;;4.57;2.10;;;;;;;;;;5038621;28;20182;-78
2023/03/12 00:35:24;;;;;;;2.60;2.40;;;;;;;;;;5045691;28;20181;-78
2023/03/12 00:37:49;;;;;;;2.40;2.20;;;;;;;;;;5027261;28;20184;-78
2023/03/12 00:40:15;;;;;;;2.40;2.20;;;;;;;;;;5030558;28;20184;-77
2023/03/12 00:42:40;;;;;;;3.43;1.83;;;;;;;;;;5032894;28;20310;-77
2023/03/12 00:45:05;;;;;;;2.23;2.00;;;;;;;;;;5019407;28;20176;-77
2023/03/12 00:47:31;;;;;;;6.37;2.23;;;;;;;;;;5018423;28;20203;-77
2023/03/12 00:49:56;;;;;;;2.73;2.13;;;;;;;;;;5022987;28;20176;-78
2023/03/12 00:52:21;;;;;;;5.53;2.43;;;;;;;;;;5027723;28;20183;-77
2023/03/12 00:54:46;;;;;;;2.77;2.00;;;;;;;;;;5044054;28;20197;-77
2023/03/12 00:57:11;;;;;;;3.13;2.00;;;;;;;;;;5024326;28;20178;-77
2023/03/12 00:59:39;;;;;;;4.20;1.93;;;;;;;;;;5032895;28;20177;-77
2023/03/12 01:02:04;;;;;;;3.23;2.23;;;;;;;;;;5021102;28;20246;-77
2023/03/12 01:04:29;;;;;;;3.40;1.90;;;;;;;;;;5026806;28;20191;-77
2023/03/12 01:06:55;;;;;;;4.70;2.03;;;;;;;;;;5026749;28;20172;-77
2023/03/12 01:09:20;;;;;;;2.43;2.00;;;;;;;;;;5048655;28;20186;-77
2023/03/12 01:11:45;;;;;;;3.53;2.00;;;;;;;;;;5018363;28;20226;-77
2023/03/12 01:14:11;;;;;;;4.90;2.37;;;;;;;;;;5023790;28;20200;-77
2023/03/12 01:16:36;;;;;;;3.80;2.50;;;;;;;;;;5016291;28;20414;-77
2023/03/12 01:19:02;;;;;;;2.60;1.90;;;;;;;;;;5021365;28;20181;-77
2023/03/12 01:21:28;;;;;;;2.87;2.00;;;;;;;;;;5026777;28;20201;-78
2023/03/12 01:23:53;;;;;;;4.17;2.33;;;;;;;;;;5025361;28;20176;-77
2023/03/12 01:26:18;;;;;;;2.37;1.97;;;;;;;;;;5044853;28;20175;-77
2023/03/12 01:28:43;;;;;;;3.53;2.37;;;;;;;;;;5022839;28;20255;-77
2023/03/12 01:31:10;;;;;;;5.47;3.27;;;;;;;;;;5029991;28;20270;-77
2023/03/12 01:33:35;;;;;;;2.60;1.90;;;;;;;;;;5027473;28;20190;-77
2023/03/12 01:36:00;;;;;;;3.37;2.23;;;;;;;;;;5045319;28;20172;-77
2023/03/12 01:38:25;;;;;;;3.30;1.80;;;;;;;;;;5029047;28;20190;-77
2023/03/12 01:40:51;;;;;;;5.53;2.20;;;;;;;;;;5027736;28;20240;-77
2023/03/12 01:43:20;;;;;;;2.77;1.90;;;;;;;;;;5029536;28;20242;-77
2023/03/12 01:45:57;;;;;;;2.60;2.00;;;;;;;;;;5022108;28;20196;-77
2023/03/12 01:48:23;;;;;;;4.67;2.00;;;;;;;;;;5027127;28;20180;-77
2023/03/12 01:50:48;;;;;;;3.60;1.70;;;;;;;;;;5038161;28;20169;-77
2023/03/12 01:53:13;;;;;;;2.43;1.83;;;;;;;;;;5023226;28;20180;-77
2023/03/12 01:55:38;;;;;;;2.37;1.93;;;;;;;;;;5031894;28;20192;-77
2023/03/12 01:58:05;;;;;;;3.83;2.00;;;;;;;;;;5028257;28;20184;-77
2023/03/12 02:00:31;;;;;;;4.93;1.90;;;;;;;;;;5038457;28;20184;-77
2023/03/12 02:02:59;;;;;;;3.43;2.07;;;;;;;;;;5019054;28;20205;-77
2023/03/12 02:06:00;;;;;;;5.67;2.10;;;;;;;;;;5033140;28;20184;-77
2023/03/12 02:08:25;;;;;;;3.47;1.90;;;;;;;;;;4944201;28;20200;-77
2023/03/12 02:10:50;;;;;;;2.00;1.70;;;;;;;;;;4941213;28;20223;-77
2023/03/12 02:13:16;;;;;;;4.13;2.03;;;;;;;;;;4949978;28;20263;-77
2023/03/12 02:15:41;;;;;;;3.53;2.20;;;;;;;;;;4940031;28;20174;-77
2023/03/12 02:18:08;;;;;;;4.67;2.17;;;;;;;;;;4939538;28;20197;-77
2023/03/12 02:20:38;;;;;;;2.80;2.07;;;;;;;;;;4932792;29;20226;-77
2023/03/12 02:23:15;;;;;;;4.67;2.10;;;;;;;;;;4928375;29;20220;-77
2023/03/12 02:25:42;;;;;;;2.53;2.07;;;;;;;;;;4946454;28;20173;-77
2023/03/12 02:28:11;;;;;;;3.83;2.40;;;;;;;;;;4940387;28;20176;-77
2023/03/12 02:30:38;;;;;;;4.87;2.50;;;;;;;;;;4951387;28;20201;-77
2023/03/12 02:33:07;;;;;;;7.03;2.67;;;;;;;;;;4949582;28;20195;-77
2023/03/12 02:35:32;;;;;;;4.30;2.00;;;;;;;;;;4937519;29;20259;-77
2023/03/12 02:37:57;;;;;;;4.17;2.07;;;;;;;;;;4947752;28;20216;-77
2023/03/12 02:40:32;;;;;;;2.50;1.60;;;;;;;;;;4946180;28;20186;-77
2023/03/12 02:42:58;;;;;;;4.90;2.30;;;;;;;;;;5011204;28;20218;-77
2023/03/12 02:45:24;;;;;;;3.97;2.10;;;;;;;;;;5026312;28;20186;-77
2023/03/12 02:47:49;;;;;;;3.50;1.90;;;;;;;;;;5020545;28;20270;-77
2023/03/12 02:50:14;;;;;;;3.07;2.03;;;;;;;;;;5040414;28;20173;-77
2023/03/12 02:52:39;;;;;;;2.10;1.90;;;;;;;;;;5029017;28;20184;-77
2023/03/12 02:55:05;;;;;;;3.33;2.20;;;;;;;;;;5031147;28;20198;-77
2023/03/12 02:57:31;;;;;;;5.03;2.40;;;;;;;;;;5032483;28;20187;-77
2023/03/12 02:59:56;;;;;;;3.53;2.50;;;;;;;;;;5051441;28;20252;-77
2023/03/12 03:02:21;;;;;;;3.67;2.10;;;;;;;;;;5033025;28;20221;-77
2023/03/12 03:04:46;;;;;;;11.63;2.43;;;;;;;;;;5045429;28;20223;-77
2023/03/12 03:07:13;;;;;;;2.70;1.93;;;;;;;;;;5034293;28;20176;-77
2023/03/12 03:09:38;;;;;;;4.00;2.07;;;;;;;;;;5041673;28;20259;-78
2023/03/12 03:12:04;;;;;;;3.63;2.30;;;;;;;;;;5027164;28;20301;-77
2023/03/12 03:14:29;;;;;;;5.57;2.33;;;;;;;;;;5032329;28;20213;-77
2023/03/12 03:16:54;;;;;;;3.00;2.23;;;;;;;;;;5023816;28;20212;-77
2023/03/12 03:19:19;;;;;;;2.43;2.23;;;;;;;;;;5022921;28;20233;-77
2023/03/12 03:21:45;;;;;;;3.93;2.47;;;;;;;;;;5019970;28;20216;-78
2023/03/12 03:24:10;;;;;;;3.80;3.03;;;;;;;;;;5009384;28;20182;-77
2023/03/12 03:26:35;;;;;;;3.37;2.40;;;;;;;;;;5003328;28;20186;-77
2023/03/12 03:29:01;;;;;;;5.40;2.60;;;;;;;;;;5010688;28;20224;-77
2023/03/12 03:31:26;;;;;;;3.60;2.60;;;;;;;;;;5003651;28;20182;-77
2023/03/12 03:33:51;;;;;;;4.03;2.80;;;;;;;;;;5024143;28;20174;-77
2023/03/12 03:36:17;;;;;;;5.20;3.30;;;;;;;;;;5005138;28;20266;-77
2023/03/12 03:38:48;;;;;;;4.00;2.50;;;;;;;;;;5002261;28;20178;-78
2023/03/12 03:41:13;;;;;;;3.30;2.50;;;;;;;;;;5007120;28;20210;-77
2023/03/12 03:43:38;;;;;;;5.70;2.87;;;;;;;;;;5009492;28;20174;-77
2023/03/12 03:46:04;;;;;;;4.47;2.70;;;;;;;;;;5006730;28;20183;-77
2023/03/12 03:48:29;;;;;;;4.00;3.30;;;;;;;;;;5011675;28;20171;-77
2023/03/12 03:50:58;;;;;;;5.57;3.37;;;;;;;;;;5008518;28;20173;-78
2023/03/12 03:53:23;;;;;;;3.87;3.47;;;;;;;;;;4998523;28;20229;-77
2023/03/12 03:55:49;;;;;;;9.43;4.20;;;;;;;;;;5030348;28;20174;-77
2023/03/12 03:58:14;;;;;;;10.37;4.50;;;;;;;;;;5004627;28;20190;-77
2023/03/12 04:00:42;;;;;;;4.17;3.37;;;;;;;;;;5026027;28;20171;-78
2023/03/12 04:03:07;;;;;;;6.90;4.10;;;;;;;;;;5003098;28;20290;-77
2023/03/12 04:05:32;;;;;;;7.43;3.50;;;;;;;;;;5007856;28;20262;-77
2023/03/12 04:08:01;;;;;;;5.23;3.77;;;;;;;;;;5006880;28;20177;-78
2023/03/12 04:10:27;;;;;;;5.87;3.90;;;;;;;;;;4999214;28;20177;-78
2023/03/12 04:12:54;;;;;;;7.80;5.00;;;;;;;;;;4998791;28;20201;-78
2023/03/12 04:15:22;;;;;;;5.33;4.17;;;;;;;;;;5012594;28;20335;-77
2023/03/12 04:17:47;;;;;;;6.00;4.30;;;;;;;;;;5006786;28;20182;-78
2023/03/12 04:20:12;;;;;;;6.17;4.63;;;;;;;;;;5011808;28;20230;-78
2023/03/12 04:22:38;;;;;;;7.70;4.70;;;;;;;;;;5024359;28;20206;-78
2023/03/12 04:25:03;;;;;;;7.63;4.40;;;;;;;;;;4999527;28;20206;-78
2023/03/12 04:27:28;;;;;;;6.33;4.63;;;;;;;;;;5004931;28;20176;-78
2023/03/12 04:29:54;;;;;;;5.37;4.30;;;;;;;;;;5000383;28;20176;-78
2023/03/12 04:32:19;;;;;;;6.10;4.30;;;;;;;;;;5001622;28;20229;-78
2023/03/12 04:34:44;;;;;;;6.27;4.93;;;;;;;;;;5016366;28;20175;-78
2023/03/12 04:37:13;;;;;;;5.73;4.63;;;;;;;;;;5007430;28;20260;-78
2023/03/12 04:39:38;;;;;;;5.63;4.50;;;;;;;;;;5010109;28;20209;-78
2023/03/12 04:42:04;;;;;;;4.33;3.67;;;;;;;;;;5011147;28;20239;-78
2023/03/12 04:44:29;;;;;;;5.87;4.17;;;;;;;;;;5009879;28;20205;-78
2023/03/12 04:46:54;;;;;;;5.27;4.33;;;;;;;;;;5005076;28;20179;-78
2023/03/12 04:49:20;;;;;;;6.80;4.27;;;;;;;;;;5003964;28;20171;-78
2023/03/12 04:51:45;;;;;;;6.27;4.43;;;;;;;;;;5008204;28;20458;-78
2023/03/12 04:54:10;;;;;;;5.67;4.07;;;;;;;;;;5000072;28;20186;-78
2023/03/12 04:56:35;;;;;;;6.03;4.77;;;;;;;;;;5008737;28;20174;-79
2023/03/12 04:59:01;;;;;;;7.90;4.67;;;;;;;;;;5012647;28;20249;-78
2023/03/12 05:01:34;;;;;;;6.93;4.60;;;;;;;;;;5022805;28;20205;-78
2023/03/12 05:04:00;;;;;;;5.87;4.67;;;;;;;;;;5026078;28;20217;-79
2023/03/12 05:06:25;;;;;;;5.87;4.00;;;;;;;;;;5018068;28;20203;-79
2023/03/12 05:08:51;;;;;;;8.83;4.77;;;;;;;;;;5022560;28;20177;-79
2023/03/12 05:11:17;;;;;;;6.27;4.63;;;;;;;;;;5004158;28;20212;-79
2023/03/12 05:13:42;;;;;;;6.90;4.27;;;;;;;;;;5010148;28;20175;-79
2023/03/12 05:16:08;;;;;;;4.97;4.30;;;;;;;;;;5003800;28;20247;-79
2023/03/12 05:18:34;;;;;;;8.03;4.67;;;;;;;;;;5005139;28;20189;-79
2023/03/12 05:21:10;;;;;;;6.67;4.73;;;;;;;;;;5001924;28;20236;-79
2023/03/12 05:23:38;;;;;;;6.07;4.50;;;;;;;;;;5006617;28;20166;-79
2023/03/12 05:26:03;;;;;;;6.77;5.17;;;;;;;;;;5000513;28;20261;-79
2023/03/12 05:28:28;;;;;;;7.70;5.17;;;;;;;;;;5009462;28;20213;-79
2023/03/12 05:30:57;;;;;;;5.87;5.00;;;;;;;;;;5007350;28;20236;-79
2023/03/12 05:33:23;;;;;;;5.53;4.30;;;;;;;;;;5020455;28;20181;-80
2023/03/12 05:35:48;;;;;;;5.90;4.27;;;;;;;;;;5007596;28;20184;-80
2023/03/12 05:38:13;;;;;;;10.43;5.37;;;;;;;;;;4999538;28;20175;-80
2023/03/12 05:40:39;;;;;;;7.40;4.90;;;;;;;;;;5006806;28;20228;-80
2023/03/12 05:43:04;;;;;;;8.90;5.13;;;;;;;;;;5012586;28;20209;-80
2023/03/12 05:45:29;;;;;;;7.70;5.77;;;;;;;;;;5006243;28;20207;-80
2023/03/12 05:47:54;;;;;;;8.03;5.20;;;;;;;;;;4998258;28;20182;-80
2023/03/12 05:50:19;;;;;;;8.67;5.83;;;;;;;;;;5028517;28;20238;-81
2023/03/12 05:52:45;;;;;;;6.70;4.60;;;;;;;;;;5007485;28;20265;-80
2023/03/12 05:55:10;;;;;;;6.43;5.50;;;;;;;;;;5006654;28;20243;-81
2023/03/12 05:57:35;;;;;;;9.43;5.90;;;;;;;;;;4999699;28;20189;-80
2023/03/12 06:00:00;;;;;;;7.10;5.40;;;;;;;;;;5010741;28;20281;-81
2023/03/12 06:02:26;;;;;;;10.67;6.47;;;;;;;;;;4999532;28;20230;-81
2023/03/12 06:04:51;;;;;;;7.67;5.03;;;;;;;;;;5023227;28;20210;-81
2023/03/12 06:07:16;;;;;;;6.97;5.80;;;;;;;;;;4997706;28;20188;-82
2023/03/12 06:09:41;;;;;;;7.27;5.43;;;;;;;;;;5001417;28;20274;-83
2023/03/12 06:12:07;;;;;;;10.60;6.90;;;;;;;;;;5005341;28;20199;-84
2023/03/12 06:14:32;;;;;;;7.87;5.50;;;;;;;;;;5025595;28;20183;-85
2023/03/12 06:16:57;;;;;;;8.27;6.10;;;;;;;;;;5000274;28;20182;-86
2023/03/12 06:19:22;;;;;;;7.13;5.50;;;;;;;;;;5010649;28;20223;-86
2023/03/12 06:21:48;;;;;;;9.77;8.03;;;;;;;;;;5006601;28;20241;-86
2023/03/12 06:24:13;;;;;;;12.57;11.27;;;;;;;;;;5003221;28;20205;-86
2023/03/12 06:26:39;;;;;;;11.50;6.67;;;;;;;;;;5001407;28;20266;-85
2023/03/12 06:29:04;;;;;;;7.57;5.60;;;;;;;;;;4995103;28;20207;-83
2023/03/12 06:31:30;;;;;;;9.43;5.93;;;;;;;;;;5022333;28;20174;-82
2023/03/12 06:33:55;;;;;;;9.07;6.03;;;;;;;;;;5002522;28;20183;-82
2023/03/12 06:36:22;;;;;;;9.47;6.27;;;;;;;;;;4999255;28;20183;-82
2023/03/12 06:38:47;;;;;;;9.67;6.80;;;;;;;;;;4999846;28;20182;-81
2023/03/12 06:41:13;;;;;;;9.00;6.53;;;;;;;;;;5001698;28;20180;-81
2023/03/12 06:43:39;;;;;;;9.17;6.70;;;;;;;;;;5015055;28;20186;-81
2023/03/12 06:46:05;;;;;;;10.90;6.60;;;;;;;;;;5000129;28;20176;-80
2023/03/12 06:48:35;;;;;;;10.50;6.47;;;;;;;;;;5003093;28;20181;-80
2023/03/12 06:51:04;;;;;;;9.17;6.23;;;;;;;;;;5019615;28;20190;-80
2023/03/12 06:53:30;;;;;;;13.83;10.37;;;;;;;;;;5002024;28;20198;-80
2023/03/12 06:55:55;;;;;;;9.90;6.87;;;;;;;;;;5003412;28;20182;-79
2023/03/12 06:58:20;;;;;;;10.03;6.70;;;;;;;;;;5023652;28;20246;-79
2023/03/12 07:00:45;;;;;;;10.03;6.73;;;;;;;;;;5004394;28;20202;-78
2023/03/12 07:03:11;;;;;;;8.60;5.90;;;;;;;;;;4999487;28;20231;-78
2023/03/12 07:05:36;;;;;;;10.90;6.80;;;;;;;;;;5005959;28;20183;-78
2023/03/12 07:08:01;;;;;;;8.50;6.20;;;;;;;;;;5003316;28;20181;-77
2023/03/12 07:10:28;;;;;;;7.40;5.57;;;;;;;;;;5009073;28;20179;-77
2023/03/12 07:12:53;;;;;;;7.43;5.50;;;;;;;;;;4997683;28;20226;-77
2023/03/12 07:15:19;;;;;;;9.37;6.00;;;;;;;;;;5019075;28;20251;-76
2023/03/12 07:17:44;;;;;;;10.13;6.63;;;;;;;;;;5000479;28;20179;-76
2023/03/12 07:20:09;;;;;;;8.90;5.87;;;;;;;;;;4996452;28;20230;-77
2023/03/12 07:22:35;;;;;;;9.37;5.70;;;;;;;;;;5002224;28;20210;-76
2023/03/12 07:25:00;;;;;;;8.63;6.40;;;;;;;;;;5003439;28;20170;-76
2023/03/12 07:27:25;;;;;;;13.23;6.50;;;;;;;;;;4999887;28;20187;-77
2023/03/12 07:29:51;;;;;;;10.97;6.40;;;;;;;;;;5010407;28;20175;-77
2023/03/12 07:32:28;;;;;;;9.90;6.73;;;;;;;;;;5015923;28;20184;-77
2023/03/12 07:34:53;;;;;;;14.00;7.57;;;;;;;;;;5008359;28;20175;-77
2023/03/12 07:37:21;;;;;;;11.77;6.63;;;;;;;;;;5000422;28;20199;-76
2023/03/12 07:39:51;;;;;;;9.07;6.07;;;;;;;;;;5010448;28;20186;-76
2023/03/12 07:42:16;;;;;;;6.33;5.63;;;;;;;;;;5006296;28;20206;-76
2023/03/12 07:44:41;;;;;;;6.20;4.47;;;;;;;;;;5002141;28;20178;-76
2023/03/12 07:47:06;;;;;;;9.00;4.73;;;;;;;;;;5013762;28;20178;-76
2023/03/12 07:49:31;;;;;;;7.67;4.20;;;;;;;;;;5003955;28;20176;-77
2023/03/12 07:51:58;;;;;;;6.00;3.60;;;;;;;;;;5005357;28;20186;-77
2023/03/12 07:54:27;;;;;;;5.80;3.50;;;;;;;;;;4998830;28;20178;-76
2023/03/12 07:56:52;;;;;;;7.20;3.77;;;;;;;;;;5002451;28;20199;-76
2023/03/12 07:59:18;;;;;;;4.83;3.47;;;;;;;;;;5007481;28;20291;-77
2023/03/12 08:01:43;;;;;;;6.40;3.77;;;;;;;;;;5000596;28;20217;-76
2023/03/12 08:04:09;;;;;;;5.70;4.00;;;;;;;;;;5001875;28;20188;-77
2023/03/12 08:06:34;;;;;;;7.53;3.80;;;;;;;;;;5000263;28;20172;-77
2023/03/12 08:08:59;;;;;;;7.37;3.77;;;;;;;;;;5010143;28;20175;-77
2023/03/12 08:11:25;;;;;;;5.97;3.30;;;;;;;;;;5000631;28;20203;-77
2023/03/12 08:13:50;;;;;;;5.13;3.73;;;;;;;;;;5018855;28;20202;-77
2023/03/12 08:16:15;;;;;;;4.97;3.20;;;;;;;;;;5000679;28;20277;-77
2023/03/12 08:18:41;;;;;;;4.73;3.40;;;;;;;;;;5023108;28;20189;-77
2023/03/12 08:21:07;;;;;;;5.67;3.63;;;;;;;;;;5004017;28;20321;-77
2023/03/12 08:23:32;;;;;;;5.97;3.13;;;;;;;;;;5008039;28;20242;-78
2023/03/12 08:25:57;;;;;;;3.27;2.87;;;;;;;;;;5008536;28;20198;-78
2023/03/12 08:28:23;;;;;;;5.20;3.03;;;;;;;;;;5003586;28;20283;-77
2023/03/12 08:30:50;;;;;;;4.77;2.77;;;;;;;;;;5022679;28;20258;-78
2023/03/12 08:33:15;;;;;;;3.47;2.60;;;;;;;;;;5005978;28;20198;-78
2023/03/12 08:35:41;;;;;;;5.80;2.90;;;;;;;;;;5005500;28;20180;-78
2023/03/12 08:38:06;;;;;;;4.20;2.80;;;;;;;;;;5012306;28;20185;-78
2023/03/12 08:40:32;;;;;;;4.20;2.90;;;;;;;;;;5027797;28;20203;-78
2023/03/12 08:42:57;;;;;;;3.00;2.47;;;;;;;;;;5020409;28;20276;-78
2023/03/12 08:45:22;;;;;;;4.10;2.90;;;;;;;;;;4997199;28;20183;-78
2023/03/12 08:47:49;;;;;;;4.90;3.47;;;;;;;;;;5002328;28;20249;-78
2023/03/12 08:50:15;;;;;;;3.90;3.00;;;;;;;;;;4995927;28;20207;-78
2023/03/12 08:52:41;;;;;;;5.00;3.70;;;;;;;;;;5006510;28;20269;-78
2023/03/12 08:55:07;;;;;;;4.27;2.80;;;;;;;;;;5005570;28;20322;-78
2023/03/12 08:57:32;;;;;;;3.43;2.77;;;;;;;;;;5027129;28;20186;-78
2023/03/12 08:59:57;;;;;;;3.73;3.40;;;;;;;;;;5001896;28;20179;-78
2023/03/12 09:02:22;;;;;;;5.63;4.73;;;;;;;;;;4999451;28;20227;-78
2023/03/12 09:04:48;;;;;;;28.83;26.20;;;;;;;;;;5007400;28;20328;-78
2023/03/12 09:07:13;;;;;;;4.90;4.43;;;;;;;;;;5020790;28;20186;-78
2023/03/12 09:09:38;;;;;;;2.13;1.97;;;;;;;;;;5009805;28;20190;-78
2023/03/12 09:12:04;;;;;;;3.93;3.23;;;;;;;;;;4999621;28;20195;-77
2023/03/12 09:14:29;;;;;;;2.70;2.47;;;;;;;;;;4998778;28;20184;-77
2023/03/12 09:16:54;;;;;;;6.80;5.50;;;;;;;;;;5002194;28;20246;-77
2023/03/12 09:19:20;;;;;;;3.20;2.90;;;;;;;;;;5006874;28;20320;-77
2023/03/12 09:21:45;;;;;;;3.00;2.47;;;;;;;;;;5021380;28;20205;-76
2023/03/12 09:24:10;;;;;;;1.70;1.60;;;;;;;;;;5007839;28;20211;-77
2023/03/12 09:26:35;;;;;;;2.60;2.03;;;;;;;;;;5006888;28;20247;-76
2023/03/12 09:29:01;;;;;;;3.93;3.63;;;;;;;;;;5003403;28;20241;-76
2023/03/12 09:31:26;;;;;;;3.57;3.27;;;;;;;;;;5021461;28;20216;-76
2023/03/12 09:33:51;;;;;;;4.00;3.70;;;;;;;;;;5007973;28;20180;-76
2023/03/12 09:36:17;;;;;;;3.97;3.67;;;;;;;;;;5007649;28;20183;-76
2023/03/12 09:38:42;;;;;;;2.77;2.53;;;;;;;;;;5007584;28;20190;-76
2023/03/12 09:41:16;;;;;;;2.53;2.30;;;;;;;;;;5006094;28;20185;-76
2023/03/12 09:43:44;;;;;;;2.50;2.23;;;;;;;;;;5015422;28;20178;-76
2023/03/12 09:46:16;;;;;;;2.53;2.23;;;;;;;;;;5003650;28;20174;-76
2023/03/12 09:48:42;;;;;;;3.50;3.10;;;;;;;;;;5003015;28;20181;-76
2023/03/12 09:51:14;;;;;;;3.30;2.87;;;;;;;;;;5005004;28;20194;-76
2023/03/12 09:53:50;;;;;;;2.50;1.80;;;;;;;;;;5021200;28;20179;-76
2023/03/12 09:56:17;;;;;;;1.50;1.40;;;;;;;;;;5005288;28;20189;-76
2023/03/12 09:58:46;;;;;;;2.00;1.80;;;;;;;;;;4996442;28;20183;-76
2023/03/12 10:01:21;;;;;;;3.43;2.17;;;;;;;;;;5002959;28;20261;-76
2023/03/12 10:03:53;;;;;;;2.70;2.13;;;;;;;;;;5019324;28;20217;-76
2023/03/12 10:06:23;;;;;;;3.77;3.00;;;;;;;;;;5003260;28;20183;-76
2023/03/12 10:09:07;;;;;;;5.67;4.63;;;;;;;;;;4998099;28;20189;-77
2023/03/12 10:11:32;;;;;;;8.20;4.73;;;;;;;;;;5026764;28;20209;-77
2023/03/12 10:14:03;;;;;;;6.77;3.97;;;;;;;;;;5002587;28;20205;-77
2023/03/12 10:16:40;;;;;;;8.90;5.17;;;;;;;;;;5001676;28;20181;-76
2023/03/12 10:19:16;;;;;;;8.03;4.97;;;;;;;;;;5019437;28;20198;-77
2023/03/12 10:22:00;;;;;;;9.60;5.47;;;;;;;;;;5018431;28;20212;-77
2023/03/12 10:24:32;;;;;;;11.40;6.00;;;;;;;;;;5019498;28;20181;-77
2023/03/12 10:26:57;;;;;;;11.87;6.73;;;;;;;;;;5024412;28;20203;-77
2023/03/12 10:29:28;;;;;;;13.20;6.60;;;;;;;;;;5022080;28;20267;-77
2023/03/12 10:31:59;;;;;;;20.07;8.57;;;;;;;;;;5023793;28;20217;-77
2023/03/12 10:34:29;;;;;;;14.93;8.03;;;;;;;;;;5024620;28;20193;-77
2023/03/12 10:36:58;;;;;;;7.70;5.40;;;;;;;;;;5027410;28;20185;-77
2023/03/12 10:39:23;;;;;;;13.00;6.20;;;;;;;;;;5020213;28;20186;-77
2023/03/12 10:41:49;;;;;;;11.83;5.43;;;;;;;;;;5030418;28;20213;-77
2023/03/12 10:44:22;;;;;;;9.07;5.37;;;;;;;;;;5017821;28;20182;-77
2023/03/12 10:47:00;;;;;;;9.53;5.70;;;;;;;;;;5027867;28;20212;-77
2023/03/12 10:49:27;;;;;;;10.53;6.07;;;;;;;;;;5024823;28;20300;-77
2023/03/12 10:51:52;;;;;;;10.50;5.37;;;;;;;;;;5044575;28;20236;-77
2023/03/12 10:54:21;;;;;;;9.43;4.67;;;;;;;;;;5017973;28;20206;-77
2023/03/12 10:56:49;;;;;;;6.80;4.03;;;;;;;;;;5041295;28;20177;-77
2023/03/12 10:59:19;;;;;;;8.03;4.87;;;;;;;;;;5022099;28;20187;-77
2023/03/12 11:01:47;;;;;;;6.23;4.53;;;;;;;;;;5020820;28;20274;-78
2023/03/12 11:04:21;;;;;;;12.50;7.23;;;;;;;;;;5043561;28;20182;-77
2023/03/12 11:07:04;;;;;;;7.93;4.67;;;;;;;;;;5022537;28;20205;-77
2023/03/12 11:09:29;;;;;;;13.83;6.87;;;;;;;;;;5053088;28;20198;-77
2023/03/12 11:11:54;;;;;;;11.10;5.40;;;;;;;;;;5026062;28;20240;-77
2023/03/12 11:14:24;;;;;;;7.30;5.40;;;;;;;;;;5022169;28;20270;-77
2023/03/12 11:16:50;;;;;;;8.97;7.27;;;;;;;;;;5029747;28;20194;-77
2023/03/12 11:19:32;;;;;;;10.47;6.40;;;;;;;;;;5028160;28;20183;-77
2023/03/12 11:22:02;;;;;;;8.63;4.57;;;;;;;;;;5026666;28;20304;-77
2023/03/12 11:24:27;;;;;;;7.40;4.70;;;;;;;;;;5044114;28;20182;-78
2023/03/12 11:27:13;;;;;;;12.67;6.33;;;;;;;;;;5027749;28;20192;-77
2023/03/12 11:29:42;;;;;;;11.63;6.00;;;;;;;;;;4984733;28;20278;-78
2023/03/12 11:32:27;;;;;;;10.47;5.93;;;;;;;;;;5049229;28;20261;-77
2023/03/12 11:34:52;;;;;;;11.67;4.80;;;;;;;;;;5028101;28;20231;-77
2023/03/12 11:37:24;;;;;;;14.63;6.10;;;;;;;;;;5027971;28;20294;-78
2023/03/12 11:39:54;;;;;;;12.23;6.30;;;;;;;;;;5032270;28;20185;-78
2023/03/12 11:42:22;;;;;;;16.53;7.63;;;;;;;;;;5030438;28;20209;-77
2023/03/12 11:44:59;;;;;;;16.27;7.20;;;;;;;;;;5026655;28;20185;-77
2023/03/12 11:47:47;;;;;;;9.83;5.47;;;;;;;;;;5024464;28;20189;-77
2023/03/12 11:50:12;;;;;;;13.30;6.40;;;;;;;;;;5046435;28;20182;-77
2023/03/12 11:52:56;;;;;;;14.83;6.13;;;;;;;;;;5048853;28;20178;-77
2023/03/12 11:55:38;;;;;;;11.53;5.47;;;;;;;;;;5016867;28;20182;-78
2023/03/12 11:58:15;;;;;;;15.00;7.33;;;;;;;;;;5019607;28;20275;-78
2023/03/12 12:00:49;;;;;;;10.90;6.30;;;;;;;;;;5020566;28;20174;-78
2023/03/12 12:03:30;;;;;;;11.60;5.13;;;;;;;;;;5023250;28;20244;-77
2023/03/12 12:05:58;;;;;;;9.87;5.27;;;;;;;;;;5025915;28;20186;-77
2023/03/12 12:08:23;;;;;;;12.60;6.60;;;;;;;;;;5028470;28;20167;-77
2023/03/12 12:11:18;;;;;;;11.13;5.83;;;;;;;;;;5048324;28;20172;-78
2023/03/12 12:14:02;;;;;;;13.93;6.60;;;;;;;;;;5001569;28;20258;-78
2023/03/12 12:16:46;;;;;;;10.47;5.27;;;;;;;;;;5041542;28;20186;-78
2023/03/12 12:19:17;;;;;;;13.43;5.57;;;;;;;;;;5025270;28;20188;-78
2023/03/12 12:21:51;;;;;;;13.53;5.90;;;;;;;;;;5036982;28;20203;-78
2023/03/12 12:24:33;;;;;;;10.30;4.83;;;;;;;;;;5042095;28;20181;-78
2023/03/12 12:27:16;;;;;;;12.63;6.40;;;;;;;;;;5025013;28;20181;-77
2023/03/12 12:29:46;;;;;;;5.53;3.50;;;;;;;;;;5018927;28;20171;-78
2023/03/12 12:32:16;;;;;;;8.70;4.80;;;;;;;;;;5061248;28;20167;-78
2023/03/12 12:35:03;;;;;;;7.27;3.70;;;;;;;;;;5040276;28;20184;-77
2023/03/12 12:37:32;;;;;;;7.50;4.37;;;;;;;;;;5045864;28;20187;-77
2023/03/12 12:40:07;;;;;;;6.77;3.73;;;;;;;;;;5040486;28;20186;-77
2023/03/12 12:42:35;;;;;;;4.50;3.10;;;;;;;;;;5019431;28;20201;-78
2023/03/12 12:45:03;;;;;;;6.83;3.17;;;;;;;;;;5037749;28;20178;-77
2023/03/12 12:47:41;;;;;;;15.23;8.63;;;;;;;;;;5029043;28;20192;-78
2023/03/12 12:50:12;;;;;;;12.70;4.03;;;;;;;;;;5056287;28;20188;-78
2023/03/12 12:52:37;;;;;;;8.20;3.50;;;;;;;;;;5030814;28;20273;-78
2023/03/12 12:55:02;;;;;;;17.87;4.03;;;;;;;;;;5027595;28;20273;-78
2023/03/12 12:57:34;;;;;;;12.50;4.33;;;;;;;;;;5029864;28;20177;-78
2023/03/12 13:00:17;;;;;;;10.77;4.60;;;;;;;;;;5023311;28;20206;-78
2023/03/12 13:02:45;;;;;;;11.33;4.93;;;;;;;;;;5017829;28;20187;-78
2023/03/12 13:05:33;;;;;;;10.07;3.97;;;;;;;;;;5026870;28;20174;-78
2023/03/12 13:07:58;;;;;;;14.30;8.20;;;;;;;;;;5020680;28;20183;-78
2023/03/12 13:10:32;;;;;;;11.33;4.83;;;;;;;;;;5023158;28;20181;-78
2023/03/12 13:12:59;;;;;;;12.23;3.70;;;;;;;;;;5025783;28;20216;-78
2023/03/12 13:15:27;;;;;;;7.03;4.10;;;;;;;;;;5023033;28;20178;-78
2023/03/12 13:17:55;;;;;;;8.70;3.70;;;;;;;;;;5043255;28;20249;-78
2023/03/12 13:20:32;;;;;;;8.23;3.67;;;;;;;;;;5012394;28;20247;-78
2023/03/12 13:23:03;;;;;;;8.87;5.70;;;;;;;;;;5020728;28;20205;-78
2023/03/12 13:25:35;;;;;;;6.07;3.77;;;;;;;;;;4999827;28;20172;-78
2023/03/12 13:28:15;;;;;;;8.20;3.83;;;;;;;;;;5004980;28;20180;-78
2023/03/12 13:30:45;;;;;;;5.73;3.53;;;;;;;;;;5009088;28;20166;-78
2023/03/12 13:33:12;;;;;;;8.03;3.90;;;;;;;;;;5003355;28;20281;-78
2023/03/12 13:35:38;;;;;;;7.80;2.90;;;;;;;;;;5019394;28;20207;-78
2023/03/12 13:38:11;;;;;;;6.13;3.40;;;;;;;;;;5003319;28;20202;-78
2023/03/12 13:40:52;;;;;;;7.77;3.23;;;;;;;;;;5005301;28;20209;-78
2023/03/12 13:43:32;;;;;;;7.47;3.10;;;;;;;;;;5000446;28;20216;-78
2023/03/12 13:46:04;;;;;;;8.33;4.03;;;;;;;;;;5009907;28;20177;-78
2023/03/12 13:48:29;;;;;;;6.77;3.70;;;;;;;;;;5003795;28;20175;-77
2023/03/12 13:50:57;;;;;;;7.97;4.60;;;;;;;;;;5002811;28;20178;-78
2023/03/12 13:53:33;;;;;;;7.30;3.80;;;;;;;;;;5014901;28;20183;-78
2023/03/12 13:56:08;;;;;;;9.13;3.17;;;;;;;;;;5009723;28;20197;-78
2023/03/12 13:58:47;;;;;;;7.70;2.27;;;;;;;;;;5004663;28;20223;-78
2023/03/12 14:01:16;;;;;;;6.00;2.87;;;;;;;;;;4999523;28;20185;-78
2023/03/12 14:03:48;;;;;;;5.53;3.03;;;;;;;;;;5011700;28;20193;-78
2023/03/12 14:06:17;;;;;;;6.17;3.00;;;;;;;;;;5011580;28;20217;-78
2023/03/12 14:09:23;;;;;;;8.00;2.83;;;;;;;;;;5000738;28;20180;-78
2023/03/12 14:12:08;;;;;;;7.07;2.97;;;;;;;;;;4949909;28;20201;-78
2023/03/12 14:14:40;;;;;;;6.23;2.67;;;;;;;;;;4930846;29;20190;-78
2023/03/12 14:17:12;;;;;;;13.10;7.90;;;;;;;;;;4980476;28;20272;-78
2023/03/12 14:19:38;;;;;;;9.63;3.73;;;;;;;;;;5018730;28;20231;-78
2023/03/12 14:22:05;;;;;;;9.77;4.90;;;;;;;;;;5021782;28;20209;-78
2023/03/12 14:24:35;;;;;;;7.70;4.80;;;;;;;;;;5020139;28;20205;-78
2023/03/12 14:27:03;;;;;;;9.03;3.23;;;;;;;;;;5021807;28;20179;-78
2023/03/12 14:29:37;;;;;;;6.73;2.80;;;;;;;;;;5045885;28;20186;-78
2023/03/12 14:32:11;;;;;;;6.70;2.50;;;;;;;;;;5025790;28;20197;-78
2023/03/12 14:35:00;;;;;;;5.00;2.30;;;;;;;;;;5023429;28;20185;-78
2023/03/12 14:37:31;;;;;;;4.73;2.27;;;;;;;;;;5018799;28;20248;-78
2023/03/12 14:39:59;;;;;;;4.90;2.50;;;;;;;;;;5018648;28;20189;-78
2023/03/12 14:42:28;;;;;;;7.50;3.47;;;;;;;;;;5032539;28;20209;-78
2023/03/12 14:44:57;;;;;;;8.23;3.10;;;;;;;;;;5040023;28;20198;-78
2023/03/12 14:47:22;;;;;;;6.17;2.53;;;;;;;;;;5022811;28;20205;-78